Terminal Aerodrome Forecast
Issued by NWS

Home | Current Version | Previous Version | Text Only | Print | Product List | Glossary On
Versions: 1 2 3 4 5 6 7 8 9 10 11 12 13 14 15 16 17 18 19
000
FTUS43 KILX 221748
TAFCMI
TAF
KCMI 221748Z 2218/2318 18023G32KT P6SM VCSH OVC025
      TEMPO 2218/2221 5SM SHRA BR BKN015 OVC025
     FM222100 30012G22KT 5SM -RA BR OVC020
      TEMPO 2221/2301 2SM SHRA BR BKN010 OVC020
     FM230300 33010KT 6SM -RA BR OVC015
      TEMPO 2303/2307 4SM -SHRA BR SCT015 OVC025
     FM231000 32009KT P6SM VCSH SCT040 BKN080
     FM231700 31010KT P6SM SCT080 BKN200=

USA.gov is the U.S. government's official web portal to all federal, state and local government web resources and services.